Time;durP1;ratioP1;P1;durP2;ratioP2;P2;SDS_P1;SDS_P2;PMS_P1;PMS_P2;Temp;Humidity;BMP_temperature;BMP_pressure;BME280_temperature;BME280_humidity;BME280_pressure;Samples;Min_cycle;Max_cycle;Signal;HPM_P1;HPM_P2
2023/08/20 00:00:13;;;;;;;15.95;10.57;;;22.60;99.90;;;;;;5054812;28;20248;-72
2023/08/20 00:02:42;;;;;;;11.27;10.02;;;22.60;99.90;;;;;;5054436;28;20226;-72
2023/08/20 00:05:10;;;;;;;11.38;10.13;;;22.50;99.90;;;;;;5054445;28;20244;-72
2023/08/20 00:07:38;;;;;;;12.48;9.75;;;22.40;99.90;;;;;;5054256;28;20263;-73
2023/08/20 00:10:05;;;;;;;11.52;10.32;;;22.40;99.90;;;;;;5053275;28;20233;-72
2023/08/20 00:12:34;;;;;;;11.48;9.75;;;22.30;99.90;;;;;;5054147;28;20206;-72
2023/08/20 00:15:05;;;;;;;11.15;9.98;;;22.20;99.90;;;;;;5054262;28;20267;-72
2023/08/20 00:17:33;;;;;;;14.18;9.80;;;22.10;99.90;;;;;;5054240;28;20285;-73
2023/08/20 00:20:00;;;;;;;13.88;10.48;;;22.10;99.90;;;;;;5054072;28;20194;-72
2023/08/20 00:22:27;;;;;;;14.60;13.20;;;22.10;99.90;;;;;;5053911;28;20221;-72
2023/08/20 00:24:55;;;;;;;12.18;10.30;;;22.00;99.90;;;;;;5053804;28;20327;-73
2023/08/20 00:27:22;;;;;;;11.27;10.05;;;22.00;99.90;;;;;;5054033;28;20206;-72
2023/08/20 00:29:50;;;;;;;11.68;10.48;;;22.00;99.90;;;;;;5053968;28;20197;-72
2023/08/20 00:32:16;;;;;;;11.40;10.25;;;22.10;99.90;;;;;;5053768;28;20711;-73
2023/08/20 00:34:44;;;;;;;17.92;10.32;;;22.10;99.90;;;;;;5053824;28;20253;-73
2023/08/20 00:37:12;;;;;;;13.60;10.50;;;22.00;99.90;;;;;;5053810;28;20661;-74
2023/08/20 00:39:38;;;;;;;11.60;9.98;;;22.00;99.90;;;;;;5053566;28;20202;-72
2023/08/20 00:42:05;;;;;;;14.77;10.75;;;21.90;99.90;;;;;;5053729;28;20278;-72
2023/08/20 00:44:32;;;;;;;11.63;10.43;;;21.70;99.90;;;;;;5053439;28;20550;-72
2023/08/20 00:47:01;;;;;;;11.68;10.30;;;21.60;99.90;;;;;;5053369;28;20577;-73
2023/08/20 00:49:27;;;;;;;15.13;12.68;;;21.50;99.90;;;;;;5053739;28;20204;-72
2023/08/20 00:51:54;;;;;;;17.55;12.02;;;21.40;99.90;;;;;;5053364;28;20210;-72
2023/08/20 00:54:22;;;;;;;13.73;11.88;;;21.30;99.90;;;;;;5053384;28;20340;-72
2023/08/20 00:56:50;;;;;;;14.25;12.88;;;21.20;99.90;;;;;;5053256;28;20669;-72
2023/08/20 00:59:17;;;;;;;16.08;11.90;;;21.10;99.90;;;;;;5053477;28;20616;-73
2023/08/20 01:01:44;;;;;;;14.85;12.45;;;21.00;99.90;;;;;;5053229;28;20271;-73
2023/08/20 01:04:12;;;;;;;14.80;12.80;;;21.00;99.90;;;;;;5053121;28;20230;-74
2023/08/20 01:06:48;;;;;;;15.50;12.32;;;21.00;99.90;;;;;;5053136;28;20205;-73
2023/08/20 01:09:24;;;;;;;13.88;12.25;;;20.90;99.90;;;;;;5053140;28;20229;-73
2023/08/20 01:11:55;;;;;;;14.20;12.70;;;20.90;99.90;;;;;;5053210;28;20205;-73
2023/08/20 01:14:22;;;;;;;13.95;12.00;;;20.90;99.90;;;;;;5053047;28;20206;-73
2023/08/20 01:16:49;;;;;;;13.25;11.95;;;20.80;99.90;;;;;;5053048;28;20275;-73
2023/08/20 01:19:20;;;;;;;14.02;12.32;;;20.80;99.90;;;;;;5052900;28;20718;-73
2023/08/20 01:22:00;;;;;;;12.65;11.35;;;20.70;99.90;;;;;;5052933;28;20208;-73
2023/08/20 01:24:43;;;;;;;12.40;11.20;;;20.70;99.90;;;;;;5053121;28;20256;-73
2023/08/20 01:27:26;;;;;;;17.55;14.55;;;20.70;99.90;;;;;;5052942;28;20201;-73
2023/08/20 01:29:55;;;;;;;14.80;12.23;;;20.70;99.90;;;;;;5052973;28;20197;-73
2023/08/20 01:32:23;;;;;;;13.93;11.40;;;20.60;99.90;;;;;;5052974;28;20252;-73
2023/08/20 01:34:50;;;;;;;16.65;14.98;;;20.60;99.90;;;;;;5052885;28;20197;-73
2023/08/20 01:37:17;;;;;;;15.73;13.95;;;20.60;99.90;;;;;;5052762;28;20718;-73
2023/08/20 01:39:43;;;;;;;15.15;12.70;;;20.50;99.90;;;;;;5052517;28;20220;-73
2023/08/20 01:42:10;;;;;;;15.57;14.00;;;20.50;99.90;;;;;;5052601;28;20201;-73
2023/08/20 01:44:37;;;;;;;17.15;12.85;;;20.60;99.90;;;;;;5052895;28;20251;-73
2023/08/20 01:47:05;;;;;;;14.73;12.82;;;20.50;99.90;;;;;;5052944;28;20206;-73
2023/08/20 01:49:31;;;;;;;14.05;12.20;;;20.50;99.90;;;;;;5052685;28;20608;-73
2023/08/20 01:51:58;;;;;;;13.13;11.90;;;20.50;99.90;;;;;;5052617;28;20661;-73
2023/08/20 01:54:25;;;;;;;15.68;14.27;;;20.50;99.90;;;;;;5052344;28;20221;-72
2023/08/20 01:56:51;;;;;;;16.83;12.40;;;20.50;99.90;;;;;;5052506;28;20197;-73
2023/08/20 01:59:18;;;;;;;21.25;12.05;;;20.40;99.90;;;;;;5052480;28;20307;-73
2023/08/20 02:01:45;;;;;;;13.20;11.77;;;20.40;99.90;;;;;;5052500;28;20205;-73
2023/08/20 02:04:13;;;;;;;13.88;11.90;;;20.50;99.90;;;;;;5052492;28;20198;-73
2023/08/20 02:06:39;;;;;;;14.45;13.10;;;20.60;99.90;;;;;;5052464;28;20559;-73
2023/08/20 02:09:06;;;;;;;19.85;12.90;;;20.60;99.90;;;;;;5052292;28;20247;-73
2023/08/20 02:11:35;;;;;;;14.00;12.60;;;20.60;99.90;;;;;;5052494;28;20284;-73
2023/08/20 02:14:02;;;;;;;14.70;12.32;;;20.60;99.90;;;;;;5052236;28;20718;-73
2023/08/20 02:16:29;;;;;;;16.67;15.07;;;20.60;99.90;;;;;;5052418;28;20201;-73
2023/08/20 02:18:55;;;;;;;15.20;13.60;;;20.50;99.90;;;;;;5052183;28;20691;-73
2023/08/20 02:21:23;;;;;;;13.98;12.55;;;20.50;99.90;;;;;;5052342;28;20304;-73
2023/08/20 02:23:50;;;;;;;14.15;12.77;;;20.50;99.90;;;;;;5052155;28;20202;-73
2023/08/20 02:26:17;;;;;;;14.80;13.50;;;20.40;99.90;;;;;;5052439;28;20255;-73
2023/08/20 02:28:43;;;;;;;14.52;13.13;;;20.50;99.90;;;;;;5052338;28;20202;-73
2023/08/20 02:31:10;;;;;;;14.05;12.75;;;20.50;99.90;;;;;;5052397;28;20206;-72
2023/08/20 02:33:37;;;;;;;17.88;13.57;;;20.40;99.90;;;;;;5054228;28;20275;-73
2023/08/20 02:36:04;;;;;;;13.38;11.98;;;20.40;99.90;;;;;;5056190;28;20200;-73
2023/08/20 02:38:32;;;;;;;15.25;13.75;;;20.40;99.90;;;;;;5055886;28;20198;-72
2023/08/20 02:40:58;;;;;;;15.82;14.27;;;20.40;99.90;;;;;;5055992;28;20422;-73
2023/08/20 02:43:25;;;;;;;14.90;13.45;;;20.50;99.90;;;;;;5055774;28;20649;-73
2023/08/20 02:45:52;;;;;;;16.52;14.93;;;20.40;99.90;;;;;;5055849;28;20205;-73
2023/08/20 02:48:19;;;;;;;17.55;14.02;;;20.30;99.90;;;;;;5055923;28;20707;-73
2023/08/20 02:50:46;;;;;;;14.70;13.15;;;20.20;99.90;;;;;;5055651;28;20724;-73
2023/08/20 02:53:12;;;;;;;15.10;13.60;;;20.20;99.90;;;;;;5055688;28;20547;-73
2023/08/20 02:55:40;;;;;;;13.65;12.30;;;20.20;99.90;;;;;;5055759;28;20205;-73
2023/08/20 02:58:08;;;;;;;15.45;13.80;;;20.20;99.90;;;;;;5055658;28;20206;-73
2023/08/20 03:00:35;;;;;;;15.50;12.95;;;20.40;99.90;;;;;;5055560;28;20194;-73
2023/08/20 03:03:03;;;;;;;14.93;12.25;;;20.40;99.90;;;;;;5055609;28;20263;-73
2023/08/20 03:05:30;;;;;;;14.27;12.77;;;20.50;99.90;;;;;;5055332;28;20228;-72
2023/08/20 03:07:57;;;;;;;14.40;12.18;;;20.50;99.90;;;;;;5055417;28;20198;-72
2023/08/20 03:10:23;;;;;;;14.23;12.77;;;20.50;99.90;;;;;;5055532;28;20202;-72
2023/08/20 03:12:51;;;;;;;19.58;17.40;;;20.50;99.90;;;;;;5055297;28;20557;-73
2023/08/20 03:15:18;;;;;;;17.85;12.25;;;20.50;99.90;;;;;;5055301;28;20201;-72
2023/08/20 03:17:44;;;;;;;14.82;13.15;;;20.40;99.90;;;;;;5055295;28;20193;-72
2023/08/20 03:20:12;;;;;;;15.02;13.63;;;20.40;99.90;;;;;;5055093;28;20194;-72
2023/08/20 03:22:39;;;;;;;16.00;14.02;;;20.40;99.90;;;;;;5055344;28;20248;-72
2023/08/20 03:25:06;;;;;;;17.08;14.98;;;20.20;99.90;;;;;;5055135;28;20201;-73
2023/08/20 03:27:33;;;;;;;16.20;14.65;;;20.10;99.90;;;;;;5055155;28;20252;-72
2023/08/20 03:30:01;;;;;;;15.02;13.45;;;20.10;99.90;;;;;;5054894;28;20212;-73
2023/08/20 03:32:28;;;;;;;17.40;15.05;;;20.10;99.90;;;;;;5054875;28;20209;-72
2023/08/20 03:34:55;;;;;;;16.00;14.38;;;20.10;99.90;;;;;;5054992;28;20259;-72
2023/08/20 03:37:22;;;;;;;19.15;17.40;;;20.00;99.90;;;;;;5054989;28;20263;-72
2023/08/20 03:39:49;;;;;;;20.10;18.15;;;20.00;99.90;;;;;;5054795;28;20263;-72
2023/08/20 03:42:15;;;;;;;17.63;15.95;;;20.00;99.90;;;;;;5055012;28;20206;-72
2023/08/20 03:44:42;;;;;;;16.83;15.13;;;20.00;99.90;;;;;;5054620;28;20209;-73
2023/08/20 03:47:10;;;;;;;20.95;18.73;;;20.00;99.90;;;;;;5054815;28;20201;-72
2023/08/20 03:49:37;;;;;;;27.55;24.95;;;20.00;99.90;;;;;;5054843;28;20538;-72
2023/08/20 03:52:06;;;;;;;23.38;21.15;;;20.00;99.90;;;;;;5054746;28;20202;-72
2023/08/20 03:54:33;;;;;;;24.70;18.23;;;19.90;99.90;;;;;;5054505;28;20222;-72
2023/08/20 03:57:00;;;;;;;20.67;18.73;;;19.90;99.90;;;;;;5054523;28;20201;-73
2023/08/20 03:59:26;;;;;;;18.27;16.20;;;19.80;99.90;;;;;;5054262;28;20649;-72
2023/08/20 04:01:53;;;;;;;23.10;19.30;;;19.80;99.90;;;;;;5054385;28;20256;-72
2023/08/20 04:04:21;;;;;;;22.23;19.58;;;19.70;99.90;;;;;;5054512;28;20202;-72
2023/08/20 04:06:48;;;;;;;22.42;20.50;;;19.70;99.90;;;;;;5054387;28;20284;-72
2023/08/20 04:09:16;;;;;;;26.35;24.23;;;19.70;99.90;;;;;;5054311;28;20205;-72
2023/08/20 04:11:43;;;;;;;23.13;20.95;;;19.70;99.90;;;;;;5054220;28;20198;-72
2023/08/20 04:14:09;;;;;;;25.88;23.77;;;19.80;99.90;;;;;;5053966;28;20746;-72
2023/08/20 04:16:36;;;;;;;24.45;21.98;;;19.70;99.90;;;;;;5054175;28;20201;-72
2023/08/20 04:19:03;;;;;;;22.58;20.20;;;19.60;99.90;;;;;;5054160;28;20201;-72
2023/08/20 04:21:31;;;;;;;17.17;15.38;;;19.60;99.90;;;;;;5054087;28;20198;-72
2023/08/20 04:23:57;;;;;;;22.50;19.83;;;19.60;99.90;;;;;;5054179;28;20292;-72
2023/08/20 04:26:24;;;;;;;16.55;14.93;;;19.70;99.90;;;;;;5053944;28;20608;-72
2023/08/20 04:28:51;;;;;;;20.33;16.27;;;19.70;99.90;;;;;;5053503;28;20247;-72
2023/08/20 04:31:17;;;;;;;17.80;16.20;;;19.70;99.90;;;;;;5054001;28;20604;-72
2023/08/20 04:33:46;;;;;;;17.15;15.55;;;19.80;99.90;;;;;;5054034;28;20225;-73
2023/08/20 04:36:12;;;;;;;19.38;17.45;;;19.90;99.90;;;;;;5053758;28;20202;-72
2023/08/20 04:38:40;;;;;;;19.65;17.95;;;19.90;99.90;;;;;;5053641;28;20259;-73
2023/08/20 04:41:07;;;;;;;20.10;18.27;;;19.90;99.90;;;;;;5053200;28;20283;-72
2023/08/20 04:43:33;;;;;;;21.00;18.95;;;19.90;99.90;;;;;;5053447;28;20307;-73
2023/08/20 04:46:00;;;;;;;16.25;14.45;;;19.90;99.90;;;;;;5053702;28;20267;-72
2023/08/20 04:48:27;;;;;;;16.77;15.05;;;19.90;99.90;;;;;;5053418;28;20593;-73
2023/08/20 04:50:53;;;;;;;15.77;14.27;;;20.00;99.90;;;;;;5053560;28;20232;-72
2023/08/20 04:53:20;;;;;;;15.65;14.20;;;20.00;99.90;;;;;;5053290;28;20735;-73
2023/08/20 04:55:48;;;;;;;15.85;14.15;;;20.00;99.90;;;;;;5052910;28;20263;-72
2023/08/20 04:58:14;;;;;;;18.73;13.95;;;20.00;99.90;;;;;;5053459;28;20197;-73
2023/08/20 05:00:41;;;;;;;14.52;13.15;;;19.90;99.90;;;;;;5053350;28;20274;-72
2023/08/20 05:03:08;;;;;;;14.05;12.63;;;19.90;99.90;;;;;;5053352;28;20247;-72
2023/08/20 05:05:34;;;;;;;14.52;13.05;;;19.80;99.90;;;;;;5053233;28;20247;-72
2023/08/20 05:08:01;;;;;;;13.82;12.43;;;19.80;99.90;;;;;;5053246;28;20248;-72
2023/08/20 05:10:27;;;;;;;13.45;12.15;;;19.80;99.90;;;;;;5053030;28;20206;-72
2023/08/20 05:12:55;;;;;;;15.80;12.30;;;19.90;99.90;;;;;;5053525;28;20243;-72
2023/08/20 05:15:22;;;;;;;15.10;12.40;;;20.00;99.90;;;;;;5053126;28;20229;-72
2023/08/20 05:17:49;;;;;;;17.05;12.98;;;19.90;99.90;;;;;;5052882;28;20664;-72
2023/08/20 05:20:15;;;;;;;14.88;13.32;;;19.90;99.90;;;;;;5053124;28;20197;-73
2023/08/20 05:22:42;;;;;;;16.92;15.15;;;20.00;99.90;;;;;;5052884;28;20251;-72
2023/08/20 05:25:09;;;;;;;17.30;14.48;;;20.00;99.90;;;;;;5052920;28;20259;-72
2023/08/20 05:27:36;;;;;;;15.73;14.15;;;20.00;99.90;;;;;;5052778;28;20665;-73
2023/08/20 05:30:05;;;;;;;21.60;19.67;;;20.10;99.90;;;;;;5052861;28;20243;-73
2023/08/20 05:32:31;;;;;;;18.92;17.10;;;20.10;99.90;;;;;;5052828;28;20671;-73
2023/08/20 05:34:58;;;;;;;16.92;15.30;;;20.20;99.90;;;;;;5052750;28;20287;-72
2023/08/20 05:37:25;;;;;;;18.25;14.60;;;20.40;99.90;;;;;;5052744;28;20201;-72
2023/08/20 05:39:51;;;;;;;14.70;13.32;;;20.50;99.90;;;;;;5052686;28;20230;-72
2023/08/20 05:42:18;;;;;;;14.50;12.80;;;20.60;99.90;;;;;;5052909;28;20197;-73
2023/08/20 05:44:45;;;;;;;13.25;11.95;;;20.80;99.90;;;;;;5052664;28;20653;-72
2023/08/20 05:47:12;;;;;;;15.48;13.93;;;20.80;99.90;;;;;;5052628;28;20279;-72
2023/08/20 05:49:39;;;;;;;13.73;12.27;;;20.90;99.90;;;;;;5052719;28;20244;-72
2023/08/20 05:52:06;;;;;;;14.23;12.82;;;21.00;99.90;;;;;;5052520;28;20267;-73
2023/08/20 05:54:32;;;;;;;13.48;12.10;;;21.00;99.90;;;;;;5052659;28;20294;-72
2023/08/20 05:56:59;;;;;;;15.13;13.80;;;21.20;99.90;;;;;;5052864;28;20198;-72
2023/08/20 05:59:26;;;;;;;14.82;13.40;;;21.30;99.90;;;;;;5052647;28;20203;-72
2023/08/20 06:01:54;;;;;;;13.40;12.10;;;21.50;99.90;;;;;;5052473;28;20616;-72
2023/08/20 06:04:22;;;;;;;15.10;13.73;;;21.70;99.90;;;;;;5052433;28;20205;-72
2023/08/20 06:06:48;;;;;;;13.05;11.75;;;21.90;99.90;;;;;;5052317;28;20267;-73
2023/08/20 06:09:15;;;;;;;15.82;13.02;;;22.00;99.90;;;;;;5055857;28;20604;-72
2023/08/20 06:11:41;;;;;;;13.30;11.88;;;22.00;99.90;;;;;;5056607;28;20209;-73
2023/08/20 06:14:08;;;;;;;14.95;11.60;;;22.20;99.90;;;;;;5056388;28;20558;-72
2023/08/20 06:16:35;;;;;;;14.85;11.85;;;22.20;99.90;;;;;;5056220;28;20202;-72
2023/08/20 06:19:02;;;;;;;12.40;11.20;;;22.30;99.90;;;;;;5056228;28;20197;-72
2023/08/20 06:21:30;;;;;;;16.98;12.70;;;22.50;99.90;;;;;;5056651;28;20284;-73
2023/08/20 06:23:56;;;;;;;12.55;11.43;;;22.70;99.90;;;;;;5056378;28;20201;-72
2023/08/20 06:26:23;;;;;;;13.40;11.70;;;22.80;99.90;;;;;;5056175;28;20251;-73
2023/08/20 06:28:49;;;;;;;15.20;11.05;;;22.90;99.90;;;;;;5056155;28;20202;-72
2023/08/20 06:31:16;;;;;;;15.32;11.93;;;22.90;99.90;;;;;;5056091;28;20201;-73
2023/08/20 06:33:43;;;;;;;12.27;11.18;;;23.00;99.90;;;;;;5055859;28;20201;-72
2023/08/20 06:36:10;;;;;;;14.75;13.15;;;23.20;99.90;;;;;;5056123;28;20613;-72
2023/08/20 06:38:38;;;;;;;16.73;15.23;;;23.30;99.90;;;;;;5055754;28;20653;-72
2023/08/20 06:41:04;;;;;;;18.83;17.20;;;23.40;99.90;;;;;;5055517;28;20696;-73
2023/08/20 06:43:31;;;;;;;16.92;15.15;;;23.50;99.90;;;;;;5055842;28;20243;-72
2023/08/20 06:45:58;;;;;;;19.83;18.13;;;23.70;99.90;;;;;;5055755;28;20205;-73
2023/08/20 06:48:26;;;;;;;17.15;15.55;;;23.70;99.90;;;;;;5055758;28;20255;-72
2023/08/20 06:50:53;;;;;;;14.57;12.27;;;23.90;99.90;;;;;;5055949;28;20198;-73
2023/08/20 06:53:19;;;;;;;12.10;11.00;;;24.00;99.90;;;;;;5055752;28;20267;-72
2023/08/20 06:55:47;;;;;;;14.10;12.70;;;24.10;99.90;;;;;;5055603;28;20221;-74
2023/08/20 06:58:14;;;;;;;12.60;11.30;;;24.30;99.90;;;;;;5055532;28;20263;-73
2023/08/20 07:00:41;;;;;;;11.68;10.55;;;24.40;99.90;;;;;;5055317;28;20197;-72
2023/08/20 07:03:07;;;;;;;12.80;11.38;;;24.50;99.90;;;;;;5055209;28;20277;-73
2023/08/20 07:05:34;;;;;;;13.10;11.80;;;24.60;99.90;;;;;;5055404;28;20206;-74
2023/08/20 07:08:00;;;;;;;13.43;12.02;;;24.70;99.90;;;;;;5055306;28;20198;-73
2023/08/20 07:10:27;;;;;;;13.45;11.88;;;24.80;99.90;;;;;;5055368;28;20251;-73
2023/08/20 07:12:55;;;;;;;11.60;10.50;;;24.90;99.90;;;;;;5055266;28;20193;-73
2023/08/20 07:15:22;;;;;;;12.68;10.80;;;25.10;99.90;;;;;;5054878;28;20251;-73
2023/08/20 07:17:48;;;;;;;15.07;10.93;;;25.20;99.90;;;;;;5055398;28;20201;-73
2023/08/20 07:20:15;;;;;;;11.45;10.18;;;25.40;99.90;;;;;;5054952;28;20256;-73
2023/08/20 07:22:42;;;;;;;12.95;11.75;;;25.50;99.90;;;;;;5055049;28;20742;-73
2023/08/20 07:25:09;;;;;;;14.85;10.40;;;25.70;99.90;;;;;;5055137;28;20201;-74
2023/08/20 07:27:36;;;;;;;12.30;9.88;;;25.90;99.90;;;;;;5055115;28;20244;-73
2023/08/20 07:30:04;;;;;;;10.15;9.05;;;26.10;99.90;;;;;;5055041;28;20206;-73
2023/08/20 07:32:31;;;;;;;10.35;9.25;;;26.30;99.90;;;;;;5054830;28;20206;-73
2023/08/20 07:34:58;;;;;;;9.45;8.55;;;26.40;99.90;;;;;;5054947;28;20217;-73
2023/08/20 07:37:24;;;;;;;11.00;9.90;;;26.60;99.90;;;;;;5060301;28;20197;-73
2023/08/20 07:39:51;;;;;;;10.27;9.30;;;26.80;99.90;;;;;;5054696;28;20616;-73
2023/08/20 07:42:18;;;;;;;10.20;9.07;;;26.90;99.90;;;;;;5054827;28;20202;-73
2023/08/20 07:44:44;;;;;;;14.05;8.77;;;26.90;99.90;;;;;;5054732;28;20204;-74
2023/08/20 07:47:12;;;;;;;10.30;9.20;;;27.10;99.90;;;;;;5054938;28;20202;-73
2023/08/20 07:49:39;;;;;;;11.38;9.57;;;27.40;99.90;;;;;;5055099;28;20224;-73
2023/08/20 07:52:06;;;;;;;9.50;8.57;;;27.60;99.90;;;;;;5054752;28;20244;-73
2023/08/20 07:54:32;;;;;;;9.55;8.30;;;27.60;99.90;;;;;;5054432;28;20225;-73
2023/08/20 07:56:59;;;;;;;10.63;9.30;;;27.90;99.90;;;;;;5054448;28;20201;-73
2023/08/20 07:59:26;;;;;;;14.73;13.55;;;27.90;99.90;;;;;;5054674;28;20271;-73
2023/08/20 08:01:52;;;;;;;14.93;13.45;;;27.80;99.90;;;;;;5054588;28;20240;-73
2023/08/20 08:04:20;;;;;;;12.27;10.50;;;27.80;99.90;;;;;;5054469;28;20283;-73
2023/08/20 08:06:47;;;;;;;13.32;12.13;;;27.80;99.90;;;;;;5054205;28;20700;-73
2023/08/20 08:09:21;;;;;;;13.40;12.05;;;27.90;99.90;;;;;;5054444;28;20198;-73
2023/08/20 08:11:48;;;;;;;13.02;11.82;;;28.10;99.90;;;;;;5054180;28;20197;-73
2023/08/20 08:14:14;;;;;;;13.48;12.30;;;28.20;99.90;;;;;;5054328;28;20247;-73
2023/08/20 08:16:41;;;;;;;11.52;8.40;;;28.20;99.90;;;;;;5054229;28;20197;-73
2023/08/20 08:19:08;;;;;;;13.00;8.20;;;28.30;99.90;;;;;;5054466;28;20198;-73
2023/08/20 08:21:36;;;;;;;9.93;7.90;;;28.50;99.90;;;;;;5054022;28;20194;-74
2023/08/20 08:24:02;;;;;;;8.80;8.00;;;28.90;99.90;;;;;;5053928;28;20193;-73
2023/08/20 08:26:29;;;;;;;12.30;11.07;;;29.20;99.90;;;;;;5054170;28;20285;-73
2023/08/20 08:28:56;;;;;;;15.68;12.85;;;29.50;99.90;;;;;;5054119;28;20264;-73
2023/08/20 08:31:23;;;;;;;11.30;10.40;;;29.60;99.90;;;;;;5053081;28;20263;-73
2023/08/20 08:33:50;;;;;;;15.38;14.30;;;29.90;99.90;;;;;;5053886;28;20243;-73
2023/08/20 08:36:17;;;;;;;15.98;14.60;;;30.00;99.90;;;;;;5053479;28;20229;-73
2023/08/20 08:38:45;;;;;;;22.30;20.58;;;30.10;99.90;;;;;;5053391;28;20290;-73
2023/08/20 08:41:13;;;;;;;19.20;17.73;;;30.20;99.90;;;;;;5053563;28;20615;-73
2023/08/20 08:43:40;;;;;;;20.23;18.52;;;30.50;99.90;;;;;;5053496;28;20624;-73
2023/08/20 08:46:08;;;;;;;18.92;17.38;;;30.90;99.90;;;;;;5053391;28;20657;-73
2023/08/20 08:48:35;;;;;;;23.23;21.38;;;30.70;99.90;;;;;;5053630;28;20201;-73
2023/08/20 08:51:02;;;;;;;18.30;16.80;;;30.20;99.90;;;;;;5053366;28;20679;-73
2023/08/20 08:53:31;;;;;;;17.58;16.42;;;30.20;99.90;;;;;;5053435;28;20205;-74
2023/08/20 08:55:59;;;;;;;14.57;13.07;;;30.20;99.90;;;;;;5053180;28;20704;-73
2023/08/20 08:58:26;;;;;;;13.35;12.25;;;30.30;99.90;;;;;;5053430;28;20198;-73
2023/08/20 09:00:53;;;;;;;13.05;11.93;;;30.30;99.90;;;;;;5053413;28;20247;-73
2023/08/20 09:03:20;;;;;;;13.52;11.75;;;30.80;99.90;;;;;;5053376;28;20194;-74
2023/08/20 09:05:48;;;;;;;12.90;11.98;;;31.60;99.90;;;;;;5053107;28;20201;-73
2023/08/20 09:08:20;;;;;;;13.57;12.15;;;31.90;99.90;;;;;;5053389;28;20288;-73
2023/08/20 09:10:47;;;;;;;18.02;16.20;;;32.40;99.90;;;;;;5053411;28;20247;-73
2023/08/20 09:13:15;;;;;;;19.90;18.40;;;32.50;99.90;;;;;;5053167;28;20256;-73
2023/08/20 09:15:42;;;;;;;20.23;18.83;;;32.30;99.90;;;;;;5053119;28;20312;-74
2023/08/20 09:18:10;;;;;;;14.85;13.70;;;32.20;99.90;;;;;;5052974;28;20205;-73
2023/08/20 09:20:38;;;;;;;13.73;12.45;;;32.70;99.90;;;;;;5052867;28;20248;-74
2023/08/20 09:23:05;;;;;;;14.85;13.82;;;33.10;99.90;;;;;;5053128;28;20609;-74
2023/08/20 09:25:31;;;;;;;13.40;12.20;;;33.50;99.90;;;;;;5053054;28;20201;-74
2023/08/20 09:27:58;;;;;;;15.73;14.30;;;33.40;99.90;;;;;;5052876;28;20254;-73
2023/08/20 09:30:26;;;;;;;12.80;11.68;;;33.30;99.90;;;;;;5052858;28;20205;-74
2023/08/20 09:33:06;;;;;;;14.30;13.18;;;32.90;99.90;;;;;;5052741;28;20197;-73
2023/08/20 09:35:33;;;;;;;16.60;15.23;;;32.50;99.90;;;;;;5052947;28;20225;-73
2023/08/20 09:38:00;;;;;;;13.57;12.23;;;32.60;99.90;;;;;;5052882;28;20612;-74
2023/08/20 09:40:28;;;;;;;12.02;9.77;;;33.00;99.90;;;;;;5052566;28;20229;-74
2023/08/20 09:42:55;;;;;;;10.73;9.68;;;33.70;99.90;;;;;;5052655;28;20201;-74
2023/08/20 09:45:24;;;;;;;13.60;12.55;;;33.20;99.90;;;;;;5052714;28;20197;-73
2023/08/20 09:47:56;;;;;;;33.42;31.33;;;33.20;99.90;;;;;;5052748;28;20193;-74
2023/08/20 09:50:23;;;;;;;40.22;37.33;;;33.20;99.90;;;;;;5052806;28;20224;-74
2023/08/20 09:52:58;;;;;;;27.85;25.60;;;33.00;99.90;;;;;;5052761;28;20236;-74
2023/08/20 09:55:30;;;;;;;20.67;19.02;;;33.40;99.90;;;;;;5052610;28;20220;-74
2023/08/20 09:57:59;;;;;;;11.15;9.68;;;33.50;99.90;;;;;;5052540;28;20226;-74
2023/08/20 10:00:27;;;;;;;13.50;12.30;;;33.80;99.90;;;;;;5052702;28;20208;-73
2023/08/20 10:02:55;;;;;;;18.85;17.60;;;33.60;99.90;;;;;;5052548;28;20200;-74
2023/08/20 10:05:24;;;;;;;13.75;12.55;;;33.70;99.90;;;;;;5052559;28;20259;-73
2023/08/20 10:07:51;;;;;;;12.35;10.55;;;32.80;99.90;;;;;;5052359;28;20628;-74
2023/08/20 10:10:18;;;;;;;17.27;15.98;;;32.30;99.90;;;;;;5051946;28;20251;-74
2023/08/20 10:12:46;;;;;;;18.15;16.88;;;33.00;99.90;;;;;;5052464;28;20197;-73
2023/08/20 10:15:14;;;;;;;26.85;25.02;;;33.10;99.90;;;;;;5052498;28;20213;-73
2023/08/20 10:17:43;;;;;;;26.40;24.58;;;32.90;99.90;;;;;;5052468;28;20235;-73
2023/08/20 10:20:14;;;;;;;18.77;16.88;;;33.30;99.90;;;;;;5052126;28;20798;-74
2023/08/20 10:22:42;;;;;;;14.23;9.48;;;34.00;99.90;;;;;;5052305;28;20294;-73
2023/08/20 10:25:10;;;;;;;8.48;7.65;;;34.00;99.90;;;;;;5052259;28;20202;-73
2023/08/20 10:27:38;;;;;;;10.52;6.97;;;33.70;99.90;;;;;;5052407;28;20260;-74
2023/08/20 10:30:15;;;;;;;8.68;6.93;;;34.20;99.90;;;;;;5052193;28;20275;-74
2023/08/20 10:32:46;;;;;;;11.73;6.60;;;34.70;99.90;;;;;;5052245;28;20288;-73
2023/08/20 10:35:16;;;;;;;7.53;6.80;;;34.60;99.90;;;;;;5052096;28;20260;-73
2023/08/20 10:38:01;;;;;;;8.25;7.05;;;34.30;99.90;;;;;;5052248;28;20920;-73
2023/08/20 10:40:49;;;;;;;8.82;6.43;;;34.30;99.90;;;;;;5052193;28;20588;-74
2023/08/20 10:43:29;;;;;;;11.18;6.35;;;34.60;99.90;;;;;;5052263;28;20193;-73
2023/08/20 10:46:16;;;;;;;8.05;6.00;;;35.50;99.90;;;;;;5052029;28;20254;-74
2023/08/20 10:48:47;;;;;;;10.02;6.68;;;35.90;99.90;;;;;;5052287;28;20201;-73
2023/08/20 10:51:16;;;;;;;7.40;6.72;;;35.00;99.90;;;;;;5052223;28;20608;-73
2023/08/20 10:53:44;;;;;;;11.55;6.63;;;34.80;99.90;;;;;;5052676;28;20197;-74
2023/08/20 10:56:15;;;;;;;7.38;6.20;;;34.10;99.90;;;;;;5055591;28;20217;-74
2023/08/20 10:58:44;;;;;;;8.55;5.97;;;35.70;99.40;;;;;;5056137;28;20204;-74
2023/08/20 11:01:20;;;;;;;5.95;5.38;;;36.40;98.90;;;;;;5055782;28;20201;-74
2023/08/20 11:03:49;;;;;;;7.60;5.88;;;36.60;96.70;;;;;;5055728;28;20537;-74
2023/08/20 11:06:17;;;;;;;8.23;5.50;;;37.50;95.80;;;;;;5055575;28;20619;-74
2023/08/20 11:08:44;;;;;;;8.93;5.63;;;38.60;94.40;;;;;;5055392;28;20213;-74
2023/08/20 11:11:11;;;;;;;5.93;5.22;;;40.00;92.20;;;;;;5055693;28;20208;-74
2023/08/20 11:13:38;;;;;;;6.82;5.10;;;40.60;90.20;;;;;;5055543;28;20193;-74
2023/08/20 11:16:07;;;;;;;9.98;5.13;;;41.50;86.90;;;;;;5055341;28;20275;-74
2023/08/20 11:18:34;;;;;;;7.40;5.40;;;42.20;81.40;;;;;;5055255;28;20205;-74
2023/08/20 11:21:02;;;;;;;6.43;4.93;;;42.40;80.60;;;;;;5055203;28;20193;-74
2023/08/20 11:23:30;;;;;;;6.78;5.28;;;42.80;76.80;;;;;;5055349;28;20209;-74
2023/08/20 11:25:57;;;;;;;6.13;5.10;;;43.30;74.00;;;;;;5054941;28;20220;-74
2023/08/20 11:28:26;;;;;;;5.65;4.90;;;43.10;68.70;;;;;;5055261;28;20239;-74
2023/08/20 11:30:54;;;;;;;6.35;5.00;;;43.10;67.50;;;;;;5055144;28;20251;-74
2023/08/20 11:33:21;;;;;;;7.30;5.15;;;42.80;62.20;;;;;;5054957;28;20193;-74
2023/08/20 11:35:48;;;;;;;10.07;5.55;;;43.00;60.60;;;;;;5054850;28;20197;-74
2023/08/20 11:38:15;;;;;;;7.40;5.30;;;41.30;60.30;;;;;;5054893;28;20599;-74
2023/08/20 11:40:43;;;;;;;8.00;5.50;;;39.00;62.50;;;;;;5054911;28;20228;-74
2023/08/20 11:43:11;;;;;;;8.45;5.45;;;38.40;64.50;;;;;;5054648;28;20600;-74
2023/08/20 11:45:46;;;;;;;9.27;5.60;;;38.60;63.80;;;;;;5054835;28;20212;-74
2023/08/20 11:48:12;;;;;;;7.60;5.50;;;40.10;63.50;;;;;;5054808;28;20196;-74
2023/08/20 11:50:40;;;;;;;7.78;5.22;;;40.00;61.90;;;;;;5054908;28;20205;-74
2023/08/20 11:53:07;;;;;;;5.75;5.10;;;39.30;60.00;;;;;;5054824;28;20203;-74
2023/08/20 11:55:33;;;;;;;8.80;5.15;;;38.00;61.80;;;;;;5054786;28;20204;-74
2023/08/20 11:58:01;;;;;;;9.52;5.80;;;39.30;61.10;;;;;;5054609;28;20201;-74
2023/08/20 12:00:32;;;;;;;7.55;5.60;;;39.50;60.60;;;;;;5054592;28;20208;-74
2023/08/20 12:02:59;;;;;;;6.65;5.78;;;40.10;60.10;;;;;;5054469;28;20247;-74
2023/08/20 12:05:27;;;;;;;7.43;5.35;;;41.00;59.10;;;;;;5053362;28;20208;-74
2023/08/20 12:07:58;;;;;;;8.95;4.97;;;42.00;58.40;;;;;;5054340;28;20656;-74
2023/08/20 12:10:26;;;;;;;11.48;5.57;;;43.60;56.70;;;;;;5054468;28;20240;-74
2023/08/20 12:12:54;;;;;;;7.07;5.30;;;44.00;54.40;;;;;;5054454;28;20223;-74
2023/08/20 12:15:23;;;;;;;5.32;4.68;;;44.70;53.80;;;;;;5054266;28;20262;-74
2023/08/20 12:17:57;;;;;;;7.03;4.78;;;45.40;51.70;;;;;;5054439;28;20266;-74
2023/08/20 12:20:24;;;;;;;9.10;5.25;;;46.00;50.10;;;;;;5054401;28;20275;-75
2023/08/20 12:22:51;;;;;;;8.40;4.88;;;43.70;51.10;;;;;;5054164;28;20296;-74
2023/08/20 12:25:18;;;;;;;6.10;4.82;;;42.40;50.60;;;;;;5054114;28;20271;-74
2023/08/20 12:27:44;;;;;;;6.18;5.57;;;40.90;52.30;;;;;;5054736;28;20265;-74
2023/08/20 12:30:12;;;;;;;11.68;5.80;;;41.00;52.40;;;;;;5053962;28;20201;-74
2023/08/20 12:32:40;;;;;;;9.63;5.30;;;41.10;52.30;;;;;;5054034;28;20201;-75